Time;durP1;ratioP1;P1;durP2;ratioP2;P2;SDS_P1;SDS_P2;PMS_P1;PMS_P2;Temp;Humidity;BMP_temperature;BMP_pressure;BME280_temperature;BME280_humidity;BME280_pressure;Samples;Min_cycle;Max_cycle;Signal;HPM_P1;HPM_P2
2021/05/16 00:00:27;;;;;;;1.23;0.80;;;10.10;99.90;;;;;;5072111;28;20712;-89
2021/05/16 00:02:54;;;;;;;2.53;0.90;;;10.10;99.90;;;;;;5071048;28;21238;-88
2021/05/16 00:05:43;;;;;;;1.50;0.87;;;10.10;99.90;;;;;;5068390;28;20678;-89
2021/05/16 00:08:12;;;;;;;1.20;1.00;;;10.10;99.90;;;;;;5073282;28;20984;-88
2021/05/16 00:10:38;;;;;;;2.93;0.73;;;10.20;99.90;;;;;;5078764;28;20661;-89
2021/05/16 00:13:05;;;;;;;4.00;1.33;;;10.10;99.90;;;;;;5091976;28;20617;-89
2021/05/16 00:15:40;;;;;;;3.53;1.03;;;10.10;99.90;;;;;;5096517;28;20676;-89
2021/05/16 00:18:06;;;;;;;1.97;0.73;;;10.10;99.90;;;;;;5097751;28;20613;-87
2021/05/16 00:20:34;;;;;;;2.93;1.23;;;10.10;99.90;;;;;;5094443;28;20661;-87
2021/05/16 00:23:03;;;;;;;2.83;0.97;;;10.10;99.90;;;;;;5085494;28;20678;-87
2021/05/16 00:25:32;;;;;;;1.83;0.73;;;10.10;99.90;;;;;;5081010;28;20647;-87
2021/05/16 00:27:58;;;;;;;1.37;1.10;;;10.10;99.90;;;;;;5078804;28;20645;-87
2021/05/16 00:30:28;;;;;;;2.33;0.87;;;10.20;99.90;;;;;;5076902;28;20657;-87
2021/05/16 00:33:02;;;;;;;2.80;1.00;;;10.20;99.90;;;;;;5076227;28;20641;-88
2021/05/16 00:35:29;;;;;;;1.87;1.20;;;10.20;99.90;;;;;;5081179;28;20628;-88
2021/05/16 00:37:57;;;;;;;2.10;0.93;;;10.30;99.90;;;;;;5075401;28;20621;-87
2021/05/16 00:40:25;;;;;;;1.70;1.03;;;10.30;99.90;;;;;;5074551;28;21050;-88
2021/05/16 00:42:51;;;;;;;2.77;1.10;;;10.30;99.90;;;;;;5078157;28;21214;-87
2021/05/16 00:45:19;;;;;;;5.93;1.13;;;10.30;99.90;;;;;;5074908;28;20693;-86
2021/05/16 00:47:47;;;;;;;1.40;1.03;;;10.30;99.90;;;;;;5073246;28;20641;-88
2021/05/16 00:50:17;;;;;;;2.63;0.97;;;10.40;99.90;;;;;;5095066;28;20644;-90
2021/05/16 00:52:44;;;;;;;2.73;1.10;;;10.40;99.90;;;;;;5085989;28;20624;-90
2021/05/16 00:55:14;;;;;;;4.33;1.33;;;10.40;99.90;;;;;;5088598;28;20620;-89
2021/05/16 00:57:42;;;;;;;2.30;1.30;;;10.40;99.90;;;;;;5084471;28;20625;-88
2021/05/16 01:00:14;;;;;;;1.90;1.10;;;10.40;99.90;;;;;;5087420;28;20667;-89
2021/05/16 01:02:41;;;;;;;1.30;0.90;;;10.40;99.90;;;;;;5089161;28;20631;-90
2021/05/16 01:05:10;;;;;;;2.03;0.70;;;10.40;99.90;;;;;;5082516;28;20589;-89
2021/05/16 01:07:37;;;;;;;2.30;1.20;;;10.50;99.90;;;;;;5074389;28;20624;-90
2021/05/16 01:10:06;;;;;;;2.40;1.03;;;10.40;99.90;;;;;;5068683;28;20648;-91
2021/05/16 01:12:40;;;;;;;3.90;1.13;;;10.50;99.90;;;;;;5072166;28;20641;-90
2021/05/16 01:15:10;;;;;;;2.07;0.90;;;10.50;99.90;;;;;;5075722;28;20655;-90
2021/05/16 01:17:36;;;;;;;3.13;1.00;;;10.50;99.90;;;;;;5077117;28;20625;-90
2021/05/16 01:20:08;;;;;;;1.70;1.00;;;10.50;99.90;;;;;;5081467;28;21071;-90
2021/05/16 01:22:36;;;;;;;2.20;1.00;;;10.50;99.90;;;;;;5079667;28;20641;-89
2021/05/16 01:25:05;;;;;;;1.77;0.93;;;10.60;99.90;;;;;;5089096;28;20629;-91
2021/05/16 01:27:31;;;;;;;1.93;1.00;;;10.60;99.90;;;;;;5078204;28;20629;-90
2021/05/16 01:29:58;;;;;;;2.63;1.10;;;10.50;99.90;;;;;;5069049;28;20668;-90
2021/05/16 01:32:25;;;;;;;3.00;1.10;;;10.60;99.90;;;;;;5072087;28;20633;-89
2021/05/16 01:34:51;;;;;;;2.93;1.70;;;10.50;99.90;;;;;;5068485;28;20629;-88
2021/05/16 01:37:18;;;;;;;2.30;1.40;;;10.60;99.90;;;;;;5065915;28;20633;-88
2021/05/16 01:39:47;;;;;;;2.97;1.20;;;10.60;99.90;;;;;;5066933;28;20656;-88
2021/05/16 01:42:15;;;;;;;2.37;1.10;;;10.60;99.90;;;;;;5069478;28;20672;-89
2021/05/16 01:44:42;;;;;;;3.43;1.10;;;10.60;99.90;;;;;;5068179;28;20636;-89
2021/05/16 01:47:09;;;;;;;3.57;1.30;;;10.60;99.90;;;;;;5069312;28;20672;-88
2021/05/16 01:49:41;;;;;;;2.30;1.20;;;10.60;99.90;;;;;;5064449;28;20641;-88
2021/05/16 01:52:09;;;;;;;2.27;1.20;;;10.60;99.90;;;;;;5065923;28;21151;-89
2021/05/16 01:54:36;;;;;;;2.63;0.90;;;10.60;99.90;;;;;;5061797;28;20970;-88
2021/05/16 01:57:04;;;;;;;4.30;1.40;;;10.70;99.90;;;;;;5064479;28;20635;-89
2021/05/16 01:59:32;;;;;;;3.73;1.13;;;10.70;99.90;;;;;;5067602;28;20633;-89
2021/05/16 02:02:01;;;;;;;3.50;0.97;;;10.60;99.90;;;;;;5065773;28;21086;-88
2021/05/16 02:04:28;;;;;;;1.97;1.00;;;10.60;99.90;;;;;;5072670;28;20617;-87
2021/05/16 02:06:58;;;;;;;3.07;1.50;;;10.60;99.90;;;;;;5065825;28;20624;-88
2021/05/16 02:09:25;;;;;;;3.37;1.37;;;10.50;99.90;;;;;;5069587;28;20617;-88
2021/05/16 02:11:52;;;;;;;4.67;1.27;;;10.50;99.90;;;;;;5066720;28;20651;-90
2021/05/16 02:14:26;;;;;;;1.87;0.80;;;10.40;99.90;;;;;;5065600;28;21070;-90
2021/05/16 02:16:54;;;;;;;3.37;1.17;;;10.40;99.90;;;;;;5051559;28;20627;-90
2021/05/16 02:19:20;;;;;;;3.70;1.30;;;10.40;99.90;;;;;;5071941;28;20663;-90
2021/05/16 02:21:47;;;;;;;2.90;1.10;;;10.30;99.90;;;;;;5064502;27;20677;-88
2021/05/16 02:24:13;;;;;;;2.30;1.17;;;10.30;99.90;;;;;;5065323;28;20605;-90
2021/05/16 02:26:39;;;;;;;2.77;1.17;;;10.30;99.90;;;;;;5066048;28;21186;-89
2021/05/16 02:29:07;;;;;;;2.17;1.20;;;10.30;99.90;;;;;;5076311;28;20615;-89
2021/05/16 02:31:34;;;;;;;2.57;1.30;;;10.30;99.90;;;;;;5071269;28;20620;-90
2021/05/16 02:34:02;;;;;;;4.40;1.37;;;10.40;99.90;;;;;;5068451;28;21197;-89
2021/05/16 02:36:28;;;;;;;3.57;1.30;;;10.30;99.90;;;;;;5069755;28;20962;-89
2021/05/16 02:38:56;;;;;;;2.37;1.20;;;10.40;99.90;;;;;;5069415;28;20731;-88
2021/05/16 02:41:23;;;;;;;4.07;1.77;;;10.30;99.90;;;;;;5077928;28;20676;-89
2021/05/16 02:43:49;;;;;;;2.40;1.67;;;10.40;99.90;;;;;;5072257;28;20620;-89
2021/05/16 02:46:16;;;;;;;4.50;1.90;;;10.20;99.90;;;;;;5073895;28;20636;-89
2021/05/16 02:48:43;;;;;;;5.60;1.27;;;10.20;99.90;;;;;;5069727;28;20644;-90
2021/05/16 02:51:09;;;;;;;3.23;1.60;;;10.20;99.90;;;;;;5067110;28;20755;-89
2021/05/16 02:53:36;;;;;;;2.80;1.13;;;10.10;99.90;;;;;;5069702;28;21211;-87
2021/05/16 02:56:04;;;;;;;2.90;1.10;;;10.10;99.90;;;;;;5062691;28;20621;-88
2021/05/16 02:58:30;;;;;;;3.40;1.63;;;10.00;99.90;;;;;;5071660;28;20622;-87
2021/05/16 03:00:57;;;;;;;1.70;1.30;;;10.00;99.90;;;;;;5088827;28;20754;-88
2021/05/16 03:03:23;;;;;;;3.37;1.17;;;10.00;99.90;;;;;;5084383;28;20606;-88
2021/05/16 03:05:54;;;;;;;2.90;1.23;;;10.20;99.90;;;;;;5089385;28;20609;-86
2021/05/16 03:08:21;;;;;;;3.23;1.30;;;10.20;99.90;;;;;;5086822;28;21183;-87
2021/05/16 03:10:49;;;;;;;1.87;1.10;;;10.30;99.90;;;;;;5090671;28;20687;-87
2021/05/16 03:13:15;;;;;;;2.00;1.33;;;10.30;99.90;;;;;;5091534;28;20625;-87
2021/05/16 03:15:42;;;;;;;2.33;1.03;;;10.50;99.90;;;;;;5090506;28;20633;-89
2021/05/16 03:18:09;;;;;;;4.70;1.60;;;10.50;99.90;;;;;;5087327;28;20768;-89
2021/05/16 03:20:36;;;;;;;3.97;1.30;;;10.60;99.90;;;;;;5117921;27;20661;-88
2021/05/16 03:23:03;;;;;;;3.20;1.20;;;10.50;99.90;;;;;;5089110;28;20617;-87
2021/05/16 03:25:34;;;;;;;2.20;1.63;;;10.50;99.90;;;;;;5092194;28;20601;-87
2021/05/16 03:28:00;;;;;;;2.00;1.00;;;10.50;99.90;;;;;;5091618;28;20680;-87
2021/05/16 03:30:26;;;;;;;2.87;1.60;;;10.50;99.90;;;;;;5095662;28;20640;-87
2021/05/16 03:32:55;;;;;;;1.43;1.20;;;10.50;99.90;;;;;;5088656;28;21211;-86
2021/05/16 03:35:23;;;;;;;1.77;1.10;;;10.50;99.90;;;;;;5086885;28;21020;-87
2021/05/16 03:37:50;;;;;;;1.87;1.37;;;10.50;99.90;;;;;;5070181;28;20637;-87
2021/05/16 03:40:17;;;;;;;2.90;1.10;;;10.50;99.90;;;;;;5081582;28;21125;-87
2021/05/16 03:42:45;;;;;;;1.90;1.23;;;10.60;99.90;;;;;;5086972;28;20622;-88
2021/05/16 03:45:14;;;;;;;1.67;1.10;;;10.60;99.90;;;;;;5089996;28;20621;-87
2021/05/16 03:47:40;;;;;;;2.30;1.27;;;10.60;99.90;;;;;;5084439;28;20639;-88
2021/05/16 03:50:10;;;;;;;2.33;1.20;;;10.50;99.90;;;;;;5078454;28;21122;-87
2021/05/16 03:52:42;;;;;;;3.67;1.50;;;10.50;99.90;;;;;;5077656;28;20652;-86
2021/05/16 03:55:11;;;;;;;2.50;1.43;;;10.50;99.90;;;;;;5069401;28;20639;-87
2021/05/16 03:57:39;;;;;;;2.70;1.50;;;10.50;99.90;;;;;;5076032;28;20712;-88
2021/05/16 04:00:07;;;;;;;2.93;1.37;;;10.50;99.90;;;;;;5071146;28;20653;-86
2021/05/16 04:02:34;;;;;;;2.30;1.00;;;10.60;99.90;;;;;;5067353;28;21287;-86
2021/05/16 04:05:00;;;;;;;4.10;1.00;;;10.60;99.90;;;;;;5059105;28;20637;-87
2021/05/16 04:07:27;;;;;;;7.07;1.17;;;10.60;99.90;;;;;;5057870;28;20680;-87
2021/05/16 04:09:53;;;;;;;2.70;1.03;;;10.50;99.90;;;;;;5068856;28;20648;-87
2021/05/16 04:12:20;;;;;;;5.10;1.20;;;10.40;99.90;;;;;;5069947;28;20748;-87
2021/05/16 04:14:51;;;;;;;2.10;1.03;;;10.40;99.90;;;;;;5067637;28;20629;-88
2021/05/16 04:17:19;;;;;;;1.80;1.00;;;10.40;99.90;;;;;;5064501;28;20613;-88
2021/05/16 04:19:46;;;;;;;3.80;1.33;;;10.60;99.90;;;;;;5069931;28;20802;-88
2021/05/16 04:22:13;;;;;;;2.20;1.10;;;10.70;99.90;;;;;;5065823;28;20658;-88
2021/05/16 04:24:40;;;;;;;3.90;1.63;;;10.60;99.90;;;;;;5066176;28;20658;-88
2021/05/16 04:27:06;;;;;;;1.60;1.10;;;10.60;99.90;;;;;;5069527;28;21261;-89
2021/05/16 04:29:33;;;;;;;2.93;1.00;;;10.70;99.90;;;;;;5063583;28;20683;-88
2021/05/16 04:32:01;;;;;;;1.27;0.80;;;10.70;99.90;;;;;;5067224;28;20629;-87
2021/05/16 04:34:28;;;;;;;1.30;0.80;;;10.70;99.90;;;;;;5069028;28;21264;-88
2021/05/16 04:36:55;;;;;;;0.70;0.70;;;10.70;99.90;;;;;;5069300;28;20648;-89
2021/05/16 04:39:21;;;;;;;2.83;0.70;;;10.70;99.90;;;;;;5064910;28;20632;-89
2021/05/16 04:41:47;;;;;;;1.57;0.90;;;10.70;99.90;;;;;;5069152;28;20668;-90
2021/05/16 04:44:15;;;;;;;2.40;0.80;;;10.70;99.90;;;;;;5073197;28;21155;-89
2021/05/16 04:46:46;;;;;;;1.33;1.00;;;10.70;99.90;;;;;;5085365;28;20633;-89
2021/05/16 04:49:14;;;;;;;0.70;0.40;;;10.70;99.90;;;;;;5091180;28;20685;-89
2021/05/16 04:51:40;;;;;;;1.03;0.60;;;10.50;99.90;;;;;;5074222;28;20625;-87
2021/05/16 04:54:07;;;;;;;1.17;0.87;;;10.70;99.90;;;;;;5070742;28;20613;-88
2021/05/16 04:56:34;;;;;;;3.53;1.50;;;10.60;99.90;;;;;;5069151;28;20641;-87
2021/05/16 04:59:02;;;;;;;1.03;0.87;;;10.70;99.90;;;;;;5073303;28;20723;-87
2021/05/16 05:01:29;;;;;;;3.33;0.80;;;10.60;99.90;;;;;;5069390;28;20676;-87
2021/05/16 05:03:55;;;;;;;2.90;1.33;;;10.60;99.90;;;;;;5064583;28;20682;-87
2021/05/16 05:06:23;;;;;;;2.33;0.90;;;10.70;99.90;;;;;;5065523;28;22417;-85
2021/05/16 05:08:49;;;;;;;2.13;0.70;;;10.90;99.90;;;;;;5067228;28;20633;-89
2021/05/16 05:11:16;;;;;;;1.13;0.87;;;10.80;99.90;;;;;;5070073;28;21123;-86
2021/05/16 05:13:42;;;;;;;0.73;0.63;;;10.90;99.90;;;;;;5067109;28;20689;-86
2021/05/16 05:16:08;;;;;;;0.90;0.70;;;11.00;99.90;;;;;;5065076;28;20693;-86
2021/05/16 05:18:35;;;;;;;2.20;0.90;;;11.10;99.90;;;;;;5061352;28;20668;-88
2021/05/16 05:21:02;;;;;;;1.47;0.73;;;11.20;99.90;;;;;;5060482;28;20753;-86
2021/05/16 05:23:30;;;;;;;0.60;0.50;;;11.20;99.90;;;;;;5070597;28;20648;-86
2021/05/16 05:25:58;;;;;;;0.90;0.60;;;11.20;99.90;;;;;;5067243;28;20631;-87
2021/05/16 05:28:25;;;;;;;1.00;0.90;;;11.20;99.90;;;;;;5069521;28;20637;-88
2021/05/16 05:30:52;;;;;;;1.43;1.10;;;11.20;99.90;;;;;;5067288;28;20712;-86
2021/05/16 05:33:19;;;;;;;1.90;0.80;;;11.30;99.90;;;;;;5065318;28;20617;-88
2021/05/16 05:35:46;;;;;;;2.00;1.70;;;11.30;99.90;;;;;;5065937;28;21262;-86
2021/05/16 05:38:12;;;;;;;1.77;0.90;;;11.20;99.90;;;;;;5060052;28;20637;-86
2021/05/16 05:40:40;;;;;;;3.20;2.60;;;11.30;99.90;;;;;;5064090;28;20665;-86
2021/05/16 05:43:07;;;;;;;2.77;1.63;;;11.30;99.90;;;;;;5063412;28;20619;-86
2021/05/16 05:45:34;;;;;;;1.90;1.40;;;11.30;99.90;;;;;;5059740;28;20636;-88
2021/05/16 05:48:00;;;;;;;1.50;1.40;;;11.40;99.90;;;;;;5058842;28;20655;-85
2021/05/16 05:50:27;;;;;;;2.50;1.60;;;11.40;99.90;;;;;;5064762;28;20652;-87
2021/05/16 05:52:54;;;;;;;1.53;1.00;;;11.50;99.90;;;;;;5061101;28;20621;-87
2021/05/16 05:55:22;;;;;;;1.97;0.90;;;11.40;99.90;;;;;;5094480;28;20687;-88
2021/05/16 05:57:50;;;;;;;1.33;0.87;;;11.40;99.90;;;;;;5066642;28;20663;-87
2021/05/16 06:00:18;;;;;;;1.40;1.00;;;11.50;99.90;;;;;;5070883;28;20694;-87
2021/05/16 06:02:44;;;;;;;1.87;0.90;;;11.50;99.90;;;;;;5067550;28;20672;-86
2021/05/16 06:05:11;;;;;;;1.37;0.77;;;11.50;99.90;;;;;;5068711;28;20634;-87
2021/05/16 06:07:38;;;;;;;1.47;0.73;;;11.50;99.90;;;;;;5065685;28;20625;-87
2021/05/16 06:10:07;;;;;;;1.70;0.87;;;11.60;99.90;;;;;;5067844;28;20652;-87
2021/05/16 06:12:33;;;;;;;2.17;0.80;;;11.60;99.90;;;;;;5068482;28;20638;-88
2021/05/16 06:15:01;;;;;;;1.03;0.60;;;11.70;99.90;;;;;;5067924;28;20626;-88
2021/05/16 06:17:27;;;;;;;1.33;0.70;;;11.70;99.90;;;;;;5069329;28;20640;-88
2021/05/16 06:19:54;;;;;;;2.63;0.90;;;11.70;99.90;;;;;;5066526;28;21013;-88
2021/05/16 06:22:20;;;;;;;3.23;1.10;;;11.80;99.90;;;;;;5067225;28;20661;-89
2021/05/16 06:24:46;;;;;;;0.80;0.73;;;11.90;99.90;;;;;;5076592;28;20620;-90
2021/05/16 06:27:14;;;;;;;1.10;0.70;;;11.90;99.90;;;;;;5068262;28;21535;-89
2021/05/16 06:29:40;;;;;;;0.93;0.57;;;11.90;99.90;;;;;;5063437;28;20660;-88
2021/05/16 06:32:09;;;;;;;2.20;0.67;;;11.90;99.90;;;;;;5069710;28;21180;-89
2021/05/16 06:34:35;;;;;;;3.20;0.80;;;11.90;99.90;;;;;;5066520;28;20663;-89
2021/05/16 06:37:02;;;;;;;1.67;0.80;;;12.00;99.90;;;;;;5070179;28;20641;-86
2021/05/16 06:39:28;;;;;;;2.13;0.50;;;12.10;99.90;;;;;;5072183;28;20638;-87
2021/05/16 06:41:55;;;;;;;1.10;0.80;;;12.30;99.90;;;;;;5068479;28;20660;-86
2021/05/16 06:44:21;;;;;;;1.20;0.60;;;12.50;99.90;;;;;;5065035;28;20694;-85
2021/05/16 06:46:47;;;;;;;1.47;0.73;;;12.70;99.90;;;;;;5062138;28;20664;-87
2021/05/16 06:49:14;;;;;;;1.30;0.60;;;12.70;99.90;;;;;;5063546;28;20721;-85
2021/05/16 06:51:41;;;;;;;1.20;0.50;;;12.50;99.90;;;;;;5069767;28;20620;-85
2021/05/16 06:54:07;;;;;;;1.00;0.67;;;12.60;99.90;;;;;;5064485;28;20679;-86
2021/05/16 06:56:34;;;;;;;2.30;1.23;;;12.60;99.90;;;;;;5065859;28;20656;-87
2021/05/16 06:59:02;;;;;;;1.43;0.73;;;12.50;99.90;;;;;;5063838;28;20644;-85
2021/05/16 07:01:28;;;;;;;2.57;0.60;;;12.60;99.90;;;;;;5062287;28;20676;-85
2021/05/16 07:03:55;;;;;;;2.83;0.73;;;12.60;99.90;;;;;;5066505;28;20693;-85
2021/05/16 07:06:22;;;;;;;1.80;0.87;;;12.90;99.90;;;;;;5068808;28;20629;-85
2021/05/16 07:08:48;;;;;;;1.23;0.60;;;13.10;99.90;;;;;;5068693;28;20621;-86
2021/05/16 07:11:15;;;;;;;1.50;0.60;;;13.30;99.90;;;;;;5074638;28;20681;-86
2021/05/16 07:13:41;;;;;;;3.13;0.77;;;13.50;99.90;;;;;;5073566;28;20645;-86
2021/05/16 07:16:08;;;;;;;3.50;1.00;;;13.50;99.90;;;;;;5072358;28;20632;-88
2021/05/16 07:18:34;;;;;;;2.40;1.00;;;13.60;99.90;;;;;;5077300;28;20616;-85
2021/05/16 07:21:00;;;;;;;2.00;0.83;;;13.60;99.90;;;;;;5065570;28;21241;-86
2021/05/16 07:23:28;;;;;;;1.17;0.77;;;13.60;99.90;;;;;;5064670;28;20624;-86
2021/05/16 07:25:57;;;;;;;0.83;0.50;;;13.70;99.90;;;;;;5064474;28;20624;-86
2021/05/16 07:28:24;;;;;;;1.43;0.50;;;13.70;99.90;;;;;;5065528;28;20621;-85
2021/05/16 07:30:50;;;;;;;1.60;1.27;;;13.60;99.90;;;;;;5065880;28;20663;-87
2021/05/16 07:33:16;;;;;;;1.27;0.67;;;13.70;99.90;;;;;;5065639;28;20655;-85
2021/05/16 07:35:43;;;;;;;1.70;0.70;;;13.80;99.90;;;;;;5063870;28;20715;-86
2021/05/16 07:38:09;;;;;;;2.17;0.90;;;13.80;99.90;;;;;;5062768;28;20622;-86
2021/05/16 07:40:37;;;;;;;2.00;1.20;;;13.70;99.90;;;;;;5067810;28;20649;-86
2021/05/16 07:43:04;;;;;;;1.50;1.00;;;13.70;99.90;;;;;;5067416;28;20633;-86
2021/05/16 07:45:30;;;;;;;4.43;0.80;;;13.70;99.90;;;;;;5065717;28;20676;-87
2021/05/16 07:47:57;;;;;;;2.43;1.03;;;13.70;99.90;;;;;;5067209;28;20641;-86
2021/05/16 07:50:23;;;;;;;3.03;1.57;;;13.80;99.90;;;;;;5065083;28;20775;-87
2021/05/16 07:53:01;;;;;;;2.20;1.13;;;13.90;99.90;;;;;;5068547;28;20695;-86
2021/05/16 07:55:28;;;;;;;0.77;0.60;;;14.10;99.90;;;;;;5069885;28;21246;-86
2021/05/16 07:57:55;;;;;;;1.90;1.00;;;14.10;99.90;;;;;;5068160;28;20974;-86
2021/05/16 08:00:22;;;;;;;3.77;0.90;;;14.10;99.90;;;;;;5081049;28;20668;-86
2021/05/16 08:02:49;;;;;;;2.07;1.00;;;14.30;99.90;;;;;;5076096;28;20652;-85
2021/05/16 08:05:16;;;;;;;3.27;0.97;;;14.30;99.90;;;;;;5062830;28;21652;-88
2021/05/16 08:07:43;;;;;;;1.67;0.60;;;14.50;99.90;;;;;;5066558;28;20744;-89
2021/05/16 08:10:10;;;;;;;2.50;0.70;;;14.70;99.90;;;;;;5076464;28;20672;-88
2021/05/16 08:12:38;;;;;;;2.37;0.57;;;15.10;99.90;;;;;;5080603;28;20644;-87
2021/05/16 08:15:08;;;;;;;2.80;0.87;;;14.90;99.90;;;;;;5067480;28;20621;-88
2021/05/16 08:17:36;;;;;;;1.93;1.10;;;14.90;99.90;;;;;;5058610;28;20661;-87
2021/05/16 08:20:05;;;;;;;2.30;1.10;;;14.60;99.90;;;;;;5059153;28;20681;-87
2021/05/16 08:22:31;;;;;;;2.00;0.90;;;14.60;99.90;;;;;;5067989;28;20660;-87
2021/05/16 08:24:58;;;;;;;1.60;0.80;;;14.50;99.90;;;;;;5069797;28;20644;-87
2021/05/16 08:27:25;;;;;;;1.07;0.80;;;14.30;99.90;;;;;;5065971;28;20659;-87
2021/05/16 08:29:52;;;;;;;6.53;1.40;;;14.00;99.90;;;;;;5069114;28;20653;-88
2021/05/16 08:32:21;;;;;;;1.30;0.73;;;13.60;99.90;;;;;;5065574;28;20664;-87
2021/05/16 08:34:48;;;;;;;2.40;0.93;;;13.30;99.90;;;;;;5057752;28;20633;-87
2021/05/16 08:37:16;;;;;;;1.60;0.83;;;13.00;99.90;;;;;;5063384;28;20645;-87
2021/05/16 08:39:43;;;;;;;2.20;0.90;;;12.90;99.90;;;;;;5057909;28;20660;-87
2021/05/16 08:42:10;;;;;;;3.00;0.90;;;12.90;99.90;;;;;;5057874;28;21347;-87
2021/05/16 08:44:36;;;;;;;1.57;0.90;;;13.00;99.90;;;;;;5060526;28;20652;-87
2021/05/16 08:47:04;;;;;;;3.53;1.07;;;13.20;99.90;;;;;;5063710;28;20644;-87
2021/05/16 08:49:33;;;;;;;2.30;0.90;;;13.80;99.90;;;;;;5066066;28;20706;-88
2021/05/16 08:52:00;;;;;;;0.70;0.40;;;14.20;99.90;;;;;;5061962;28;22334;-88
2021/05/16 08:54:27;;;;;;;3.17;1.07;;;14.00;99.90;;;;;;5066678;28;20613;-87
2021/05/16 08:56:55;;;;;;;1.43;1.20;;;14.30;99.90;;;;;;5062418;28;20700;-89
2021/05/16 08:59:23;;;;;;;2.90;0.90;;;14.80;99.90;;;;;;5063382;28;20613;-86
2021/05/16 09:01:51;;;;;;;5.33;0.80;;;15.30;99.90;;;;;;5065728;28;20673;-87
2021/05/16 09:04:25;;;;;;;3.83;1.50;;;15.50;99.90;;;;;;5063158;28;20682;-88
2021/05/16 09:06:59;;;;;;;2.33;1.00;;;15.20;99.90;;;;;;5063195;28;20673;-88
2021/05/16 09:09:31;;;;;;;2.50;0.90;;;15.30;99.90;;;;;;5058112;28;20633;-87
2021/05/16 09:12:00;;;;;;;4.20;1.13;;;15.50;99.90;;;;;;5062880;28;20641;-87
2021/05/16 09:14:47;;;;;;;2.77;1.10;;;15.10;99.90;;;;;;5067332;28;21217;-87
2021/05/16 09:17:21;;;;;;;3.07;1.40;;;15.20;99.90;;;;;;5064967;28;20636;-86
2021/05/16 09:19:50;;;;;;;2.73;1.10;;;15.50;99.90;;;;;;5067644;28;21398;-87
2021/05/16 09:22:35;;;;;;;2.67;1.07;;;15.50;99.90;;;;;;5067579;28;20661;-86
2021/05/16 09:25:17;;;;;;;1.90;0.97;;;16.00;99.90;;;;;;5063331;28;20670;-87
2021/05/16 09:27:46;;;;;;;5.30;1.40;;;16.60;99.90;;;;;;5060392;28;20987;-88
2021/05/16 09:30:31;;;;;;;1.83;0.70;;;16.60;99.90;;;;;;5062526;28;20657;-87
2021/05/16 09:33:01;;;;;;;5.20;1.30;;;16.40;99.90;;;;;;5067690;28;21029;-87
2021/05/16 09:35:37;;;;;;;4.97;0.97;;;16.00;99.90;;;;;;5067625;28;20617;-87
2021/05/16 09:38:08;;;;;;;5.90;1.63;;;15.60;99.90;;;;;;5067131;28;21025;-87
2021/05/16 09:40:40;;;;;;;3.10;0.90;;;15.80;99.90;;;;;;5067602;28;20747;-88
2021/05/16 09:43:08;;;;;;;9.73;1.87;;;16.20;99.90;;;;;;5069362;28;21262;-87
2021/05/16 09:45:47;;;;;;;4.87;1.30;;;16.40;99.70;;;;;;5072268;28;20650;-87
2021/05/16 09:48:33;;;;;;;3.80;1.03;;;16.80;96.20;;;;;;5068913;28;21329;-87
2021/05/16 09:51:22;;;;;;;3.73;1.17;;;17.30;95.70;;;;;;5067040;28;20668;-87
2021/05/16 09:54:04;;;;;;;4.17;1.10;;;17.10;94.20;;;;;;5067784;28;20987;-89
2021/05/16 09:56:38;;;;;;;3.27;1.00;;;17.10;95.90;;;;;;5067257;28;21586;-88
2021/05/16 09:59:06;;;;;;;4.10;1.10;;;17.30;93.60;;;;;;5064675;28;21181;-88
2021/05/16 10:01:34;;;;;;;2.57;0.80;;;17.50;93.80;;;;;;5061997;28;20726;-89
2021/05/16 10:04:03;;;;;;;2.90;1.17;;;17.40;93.40;;;;;;5066403;28;20625;-88
2021/05/16 10:06:30;;;;;;;2.30;1.40;;;17.60;94.10;;;;;;5064543;28;20629;-88
2021/05/16 10:08:57;;;;;;;1.90;0.90;;;17.70;91.20;;;;;;5068044;28;20991;-89
2021/05/16 10:11:27;;;;;;;2.10;0.90;;;17.90;90.90;;;;;;5068876;28;20645;-88
2021/05/16 10:14:01;;;;;;;2.90;1.30;;;18.30;90.60;;;;;;5069676;28;20689;-87
2021/05/16 10:16:32;;;;;;;4.70;1.20;;;18.30;90.70;;;;;;5070929;28;20631;-87
2021/05/16 10:19:00;;;;;;;6.27;1.90;;;18.30;89.20;;;;;;5070002;28;20597;-88
2021/05/16 10:21:26;;;;;;;2.30;1.10;;;18.20;90.50;;;;;;5063384;28;20704;-88
2021/05/16 10:24:11;;;;;;;2.27;0.90;;;18.10;88.70;;;;;;5064973;28;21207;-88
2021/05/16 10:26:40;;;;;;;3.70;1.80;;;17.90;89.60;;;;;;5064296;28;20627;-88
2021/05/16 10:29:09;;;;;;;1.90;0.90;;;18.30;88.10;;;;;;5069187;28;20674;-88
2021/05/16 10:31:48;;;;;;;2.37;0.77;;;18.60;86.90;;;;;;5071819;28;21002;-89
2021/05/16 10:34:42;;;;;;;3.37;1.57;;;18.40;87.30;;;;;;5077962;28;20621;-88
2021/05/16 10:37:12;;;;;;;3.80;1.20;;;18.40;86.30;;;;;;5082947;28;20674;-88
2021/05/16 10:39:54;;;;;;;2.27;1.10;;;18.70;86.80;;;;;;5078888;28;20657;-88
2021/05/16 10:42:34;;;;;;;2.30;1.00;;;19.10;84.30;;;;;;5080154;28;20980;-88
2021/05/16 10:45:13;;;;;;;1.30;1.20;;;19.10;83.30;;;;;;5080766;28;21085;-88
2021/05/16 10:47:57;;;;;;;3.90;1.80;;;19.10;82.40;;;;;;5080617;28;20636;-87
2021/05/16 10:51:00;;;;;;;2.67;1.40;;;18.60;82.10;;;;;;5077867;28;20743;-89
2021/05/16 10:53:40;;;;;;;2.80;1.20;;;18.50;85.40;;;;;;5070058;28;21043;-88
2021/05/16 10:56:13;;;;;;;4.27;1.40;;;18.00;86.00;;;;;;5067732;28;20689;-88
2021/05/16 10:58:56;;;;;;;3.90;1.47;;;17.70;85.60;;;;;;5065500;28;20631;-88
2021/05/16 11:01:41;;;;;;;4.90;1.40;;;17.70;86.70;;;;;;5071003;28;20682;-88
2021/05/16 11:04:09;;;;;;;1.40;0.90;;;17.80;86.80;;;;;;5080623;28;20667;-88
2021/05/16 11:06:55;;;;;;;3.10;1.20;;;18.10;87.30;;;;;;5067372;28;20637;-88
2021/05/16 11:09:27;;;;;;;4.97;1.87;;;18.20;84.30;;;;;;5074426;28;20601;-88
2021/05/16 11:11:56;;;;;;;3.13;1.30;;;18.80;82.00;;;;;;5066449;28;20655;-88
2021/05/16 11:14:27;;;;;;;5.63;1.30;;;19.70;82.90;;;;;;5070935;28;20645;-87
2021/05/16 11:16:58;;;;;;;2.80;0.63;;;19.10;80.50;;;;;;5065672;28;20661;-87
2021/05/16 11:19:27;;;;;;;3.03;1.23;;;19.00;78.50;;;;;;5068390;28;20620;-88
2021/05/16 11:21:56;;;;;;;2.00;0.83;;;19.60;78.10;;;;;;5070785;28;20664;-88
2021/05/16 11:24:46;;;;;;;1.93;0.50;;;19.70;78.80;;;;;;5065801;28;20656;-87
2021/05/16 11:27:21;;;;;;;5.50;1.30;;;20.30;75.00;;;;;;5074796;28;21140;-87
2021/05/16 11:29:58;;;;;;;1.27;0.80;;;20.60;73.40;;;;;;5067205;28;21049;-87
2021/05/16 11:32:32;;;;;;;1.30;0.70;;;20.20;72.20;;;;;;5083104;28;20608;-88
2021/05/16 11:35:15;;;;;;;2.83;0.97;;;20.60;73.50;;;;;;5081746;28;20760;-88
2021/05/16 11:37:43;;;;;;;3.00;1.33;;;20.80;71.40;;;;;;5062486;28;20632;-88
2021/05/16 11:40:32;;;;;;;2.63;1.10;;;20.80;73.30;;;;;;5061852;28;20625;-87
2021/05/16 11:43:05;;;;;;;2.10;0.90;;;21.20;77.60;;;;;;5062319;28;20664;-87
2021/05/16 11:45:36;;;;;;;2.73;1.33;;;20.80;75.70;;;;;;5061164;28;21043;-89
2021/05/16 11:48:03;;;;;;;2.20;0.93;;;20.00;76.30;;;;;;5060069;28;21038;-87
2021/05/16 11:50:41;;;;;;;5.40;1.00;;;20.10;75.70;;;;;;5058892;28;20664;-86
2021/05/16 11:53:07;;;;;;;3.43;1.10;;;19.60;75.30;;;;;;5064112;28;21353;-87
2021/05/16 11:55:34;;;;;;;3.67;0.90;;;19.50;76.30;;;;;;5061761;28;20629;-88
2021/05/16 11:58:01;;;;;;;1.90;0.83;;;20.50;75.30;;;;;;5065990;28;20621;-87
2021/05/16 12:00:30;;;;;;;1.87;1.23;;;20.40;72.50;;;;;;5068229;28;20649;-87
2021/05/16 12:03:09;;;;;;;2.70;0.90;;;20.60;72.40;;;;;;5073388;28;20649;-86
2021/05/16 12:05:35;;;;;;;4.50;1.20;;;21.50;71.40;;;;;;5070526;28;20633;-88
2021/05/16 12:08:13;;;;;;;3.03;1.07;;;21.90;71.50;;;;;;5067320;28;21190;-88
2021/05/16 12:10:40;;;;;;;1.60;0.77;;;22.60;67.80;;;;;;5060943;28;20664;-87
2021/05/16 12:13:20;;;;;;;2.00;1.03;;;21.50;68.10;;;;;;5063598;28;20627;-87
2021/05/16 12:15:47;;;;;;;3.47;1.40;;;21.80;69.60;;;;;;5060291;28;20739;-88
2021/05/16 12:18:21;;;;;;;1.60;0.97;;;22.60;69.00;;;;;;5066383;28;20755;-88
2021/05/16 12:20:59;;;;;;;1.60;0.90;;;22.80;65.60;;;;;;5060612;28;20715;-87
2021/05/16 12:23:25;;;;;;;3.70;1.07;;;23.50;64.70;;;;;;5062133;28;20676;-88
2021/05/16 12:25:52;;;;;;;1.83;1.00;;;23.80;64.90;;;;;;5063742;28;20643;-89
2021/05/16 12:28:19;;;;;;;2.00;0.80;;;23.80;61.90;;;;;;5062724;28;20617;-88
2021/05/16 12:30:46;;;;;;;3.47;1.20;;;23.20;61.50;;;;;;5066454;28;21431;-88
2021/05/16 12:33:12;;;;;;;2.33;1.20;;;23.40;60.20;;;;;;5068318;28;20621;-89
2021/05/16 12:35:40;;;;;;;1.87;0.93;;;23.80;60.10;;;;;;5067590;28;21357;-89
2021/05/16 12:38:13;;;;;;;1.80;0.93;;;23.10;61.30;;;;;;5066938;28;21051;-89
2021/05/16 12:40:40;;;;;;;5.40;1.17;;;22.40;59.50;;;;;;5065493;28;20746;-88
2021/05/16 12:43:09;;;;;;;1.73;0.70;;;21.30;61.80;;;;;;5068275;28;20676;-89
2021/05/16 12:45:36;;;;;;;1.50;0.70;;;20.90;62.50;;;;;;5066770;28;20657;-89
2021/05/16 12:48:06;;;;;;;1.70;0.57;;;20.50;63.40;;;;;;5068699;28;20629;-88
2021/05/16 12:50:34;;;;;;;3.33;0.90;;;20.20;65.20;;;;;;5067274;28;21301;-88
2021/05/16 12:53:25;;;;;;;2.30;0.80;;;20.10;66.90;;;;;;5072034;28;20620;-88
2021/05/16 12:55:54;;;;;;;3.43;1.23;;;19.80;68.30;;;;;;5074489;28;20657;-88
2021/05/16 12:58:26;;;;;;;2.13;0.80;;;19.70;67.70;;;;;;5080124;28;20616;-88